sensor_id;sensor_type;location;lat;lon;timestamp;P1;durP1;ratioP1;P2;durP2;ratioP2
44102;SDS011;29769;42.178;24.742;2023-03-01T00:02:38;3.97;;;3.05;;
44102;SDS011;29769;42.178;24.742;2023-03-01T00:05:23;4.28;;;3.60;;
44102;SDS011;29769;42.178;24.742;2023-03-01T00:08:08;5.57;;;3.63;;
44102;SDS011;29769;42.178;24.742;2023-03-01T00:11:06;4.40;;;3.08;;
44102;SDS011;29769;42.178;24.742;2023-03-01T00:13:56;3.08;;;2.50;;
44102;SDS011;29769;42.178;24.742;2023-03-01T00:16:42;2.38;;;2.03;;
44102;SDS011;29769;42.178;24.742;2023-03-01T00:19:28;2.30;;;2.10;;
44102;SDS011;29769;42.178;24.742;2023-03-01T00:22:13;2.65;;;2.15;;
44102;SDS011;29769;42.178;24.742;2023-03-01T00:24:58;2.50;;;2.28;;
44102;SDS011;29769;42.178;24.742;2023-03-01T00:27:43;3.05;;;2.30;;
44102;SDS011;29769;42.178;24.742;2023-03-01T00:30:27;2.38;;;2.00;;
44102;SDS011;29769;42.178;24.742;2023-03-01T00:33:13;3.72;;;2.25;;
44102;SDS011;29769;42.178;24.742;2023-03-01T00:35:58;2.10;;;1.90;;
44102;SDS011;29769;42.178;24.742;2023-03-01T00:38:44;3.45;;;2.72;;
44102;SDS011;29769;42.178;24.742;2023-03-01T00:41:30;2.53;;;2.17;;
44102;SDS011;29769;42.178;24.742;2023-03-01T00:46:59;2.28;;;1.75;;
44102;SDS011;29769;42.178;24.742;2023-03-01T00:49:44;2.55;;;2.13;;
44102;SDS011;29769;42.178;24.742;2023-03-01T00:52:29;2.25;;;2.05;;
44102;SDS011;29769;42.178;24.742;2023-03-01T00:55:14;2.15;;;1.80;;
44102;SDS011;29769;42.178;24.742;2023-03-01T00:57:59;2.40;;;2.20;;
44102;SDS011;29769;42.178;24.742;2023-03-01T01:00:44;1.80;;;1.70;;
44102;SDS011;29769;42.178;24.742;2023-03-01T01:03:29;1.42;;;1.33;;
44102;SDS011;29769;42.178;24.742;2023-03-01T01:09:00;2.30;;;2.10;;
44102;SDS011;29769;42.178;24.742;2023-03-01T01:11:47;2.45;;;2.10;;
44102;SDS011;29769;42.178;24.742;2023-03-01T01:14:34;2.00;;;1.80;;
44102;SDS011;29769;42.178;24.742;2023-03-01T01:17:19;2.78;;;2.35;;
44102;SDS011;29769;42.178;24.742;2023-03-01T01:20:04;1.83;;;1.48;;
44102;SDS011;29769;42.178;24.742;2023-03-01T01:22:49;2.55;;;2.05;;
44102;SDS011;29769;42.178;24.742;2023-03-01T01:25:35;2.35;;;2.15;;
44102;SDS011;29769;42.178;24.742;2023-03-01T01:28:21;2.15;;;1.95;;
44102;SDS011;29769;42.178;24.742;2023-03-01T01:31:06;3.58;;;2.42;;
44102;SDS011;29769;42.178;24.742;2023-03-01T01:33:52;2.90;;;2.40;;
44102;SDS011;29769;42.178;24.742;2023-03-01T01:36:37;2.50;;;2.30;;
44102;SDS011;29769;42.178;24.742;2023-03-01T01:39:22;2.42;;;2.22;;
44102;SDS011;29769;42.178;24.742;2023-03-01T01:48:12;3.22;;;2.55;;
44102;SDS011;29769;42.178;24.742;2023-03-01T01:51:01;2.30;;;2.10;;
44102;SDS011;29769;42.178;24.742;2023-03-01T01:53:47;4.13;;;2.55;;
44102;SDS011;29769;42.178;24.742;2023-03-01T01:56:35;3.05;;;2.70;;
44102;SDS011;29769;42.178;24.742;2023-03-01T01:59:23;2.88;;;2.47;;
44102;SDS011;29769;42.178;24.742;2023-03-01T02:02:09;2.40;;;2.20;;
44102;SDS011;29769;42.178;24.742;2023-03-01T02:05:00;3.00;;;2.55;;
44102;SDS011;29769;42.178;24.742;2023-03-01T02:07:54;2.75;;;2.42;;
44102;SDS011;29769;42.178;24.742;2023-03-01T02:10:41;3.40;;;2.92;;
44102;SDS011;29769;42.178;24.742;2023-03-01T02:13:27;9.98;;;3.25;;
44102;SDS011;29769;42.178;24.742;2023-03-01T02:16:13;4.00;;;3.28;;
44102;SDS011;29769;42.178;24.742;2023-03-01T02:19:00;8.95;;;4.78;;
44102;SDS011;29769;42.178;24.742;2023-03-01T02:21:52;7.00;;;5.05;;
44102;SDS011;29769;42.178;24.742;2023-03-01T02:24:56;9.82;;;6.00;;
44102;SDS011;29769;42.178;24.742;2023-03-01T02:30:57;8.77;;;6.78;;
44102;SDS011;29769;42.178;24.742;2023-03-01T02:34:01;5.55;;;4.10;;
44102;SDS011;29769;42.178;24.742;2023-03-01T02:36:56;6.07;;;5.00;;
44102;SDS011;29769;42.178;24.742;2023-03-01T02:39:48;8.50;;;4.15;;
44102;SDS011;29769;42.178;24.742;2023-03-01T02:42:50;3.97;;;3.35;;
44102;SDS011;29769;42.178;24.742;2023-03-01T02:45:42;4.60;;;3.15;;
44102;SDS011;29769;42.178;24.742;2023-03-01T02:48:46;4.45;;;3.60;;
44102;SDS011;29769;42.178;24.742;2023-03-01T02:54:40;3.92;;;2.80;;
44102;SDS011;29769;42.178;24.742;2023-03-01T02:57:45;3.60;;;3.15;;
44102;SDS011;29769;42.178;24.742;2023-03-01T03:00:39;5.28;;;2.67;;
44102;SDS011;29769;42.178;24.742;2023-03-01T03:03:31;4.85;;;3.25;;
44102;SDS011;29769;42.178;24.742;2023-03-01T03:06:16;3.60;;;3.30;;
44102;SDS011;29769;42.178;24.742;2023-03-01T03:11:47;3.42;;;3.13;;
44102;SDS011;29769;42.178;24.742;2023-03-01T03:17:20;3.03;;;2.58;;
44102;SDS011;29769;42.178;24.742;2023-03-01T03:20:06;3.20;;;2.90;;
44102;SDS011;29769;42.178;24.742;2023-03-01T03:22:56;5.00;;;2.80;;
44102;SDS011;29769;42.178;24.742;2023-03-01T03:25:42;3.55;;;3.25;;
44102;SDS011;29769;42.178;24.742;2023-03-01T03:28:27;3.00;;;2.70;;
44102;SDS011;29769;42.178;24.742;2023-03-01T03:31:12;3.67;;;3.05;;
44102;SDS011;29769;42.178;24.742;2023-03-01T03:33:56;3.08;;;2.88;;
44102;SDS011;29769;42.178;24.742;2023-03-01T03:36:43;3.65;;;3.25;;
44102;SDS011;29769;42.178;24.742;2023-03-01T03:39:28;1.75;;;1.60;;
44102;SDS011;29769;42.178;24.742;2023-03-01T03:42:13;3.40;;;2.35;;
44102;SDS011;29769;42.178;24.742;2023-03-01T03:44:58;3.00;;;2.80;;
44102;SDS011;29769;42.178;24.742;2023-03-01T03:48:02;3.20;;;2.90;;
44102;SDS011;29769;42.178;24.742;2023-03-01T03:50:58;3.95;;;3.17;;
44102;SDS011;29769;42.178;24.742;2023-03-01T03:53:43;5.55;;;2.95;;
44102;SDS011;29769;42.178;24.742;2023-03-01T03:56:29;7.90;;;3.10;;
44102;SDS011;29769;42.178;24.742;2023-03-01T03:59:13;3.40;;;2.67;;
44102;SDS011;29769;42.178;24.742;2023-03-01T04:02:17;2.90;;;2.60;;
44102;SDS011;29769;42.178;24.742;2023-03-01T04:05:06;3.25;;;2.90;;
44102;SDS011;29769;42.178;24.742;2023-03-01T04:07:52;2.88;;;2.55;;
44102;SDS011;29769;42.178;24.742;2023-03-01T04:10:46;4.35;;;3.38;;
44102;SDS011;29769;42.178;24.742;2023-03-01T04:13:34;3.65;;;3.20;;
44102;SDS011;29769;42.178;24.742;2023-03-01T04:16:19;3.58;;;2.65;;
44102;SDS011;29769;42.178;24.742;2023-03-01T04:21:50;3.60;;;3.30;;
44102;SDS011;29769;42.178;24.742;2023-03-01T04:24:35;3.45;;;3.15;;
44102;SDS011;29769;42.178;24.742;2023-03-01T04:27:20;3.30;;;3.00;;
44102;SDS011;29769;42.178;24.742;2023-03-01T04:30:05;3.67;;;3.38;;
44102;SDS011;29769;42.178;24.742;2023-03-01T04:32:50;3.40;;;3.10;;
44102;SDS011;29769;42.178;24.742;2023-03-01T04:35:36;4.85;;;4.13;;
44102;SDS011;29769;42.178;24.742;2023-03-01T04:38:21;4.55;;;4.00;;
44102;SDS011;29769;42.178;24.742;2023-03-01T04:41:06;4.13;;;3.72;;
44102;SDS011;29769;42.178;24.742;2023-03-01T04:43:53;3.67;;;3.17;;
44102;SDS011;29769;42.178;24.742;2023-03-01T04:46:38;4.60;;;4.05;;
44102;SDS011;29769;42.178;24.742;2023-03-01T04:49:23;8.20;;;4.30;;
44102;SDS011;29769;42.178;24.742;2023-03-01T04:52:08;6.65;;;4.03;;
44102;SDS011;29769;42.178;24.742;2023-03-01T04:54:53;6.70;;;4.07;;
44102;SDS011;29769;42.178;24.742;2023-03-01T04:57:38;5.35;;;4.40;;
44102;SDS011;29769;42.178;24.742;2023-03-01T05:00:24;6.38;;;5.07;;
44102;SDS011;29769;42.178;24.742;2023-03-01T05:03:09;8.18;;;4.65;;
44102;SDS011;29769;42.178;24.742;2023-03-01T05:05:54;6.45;;;5.45;;
44102;SDS011;29769;42.178;24.742;2023-03-01T05:08:43;5.78;;;4.93;;
44102;SDS011;29769;42.178;24.742;2023-03-01T05:11:28;6.32;;;4.95;;
44102;SDS011;29769;42.178;24.742;2023-03-01T05:14:17;6.00;;;5.10;;
44102;SDS011;29769;42.178;24.742;2023-03-01T05:17:02;5.88;;;4.68;;
44102;SDS011;29769;42.178;24.742;2023-03-01T05:19:48;5.35;;;4.85;;
44102;SDS011;29769;42.178;24.742;2023-03-01T05:22:33;11.18;;;6.00;;
44102;SDS011;29769;42.178;24.742;2023-03-01T05:25:18;7.30;;;5.80;;
44102;SDS011;29769;42.178;24.742;2023-03-01T05:28:03;6.32;;;4.88;;
44102;SDS011;29769;42.178;24.742;2023-03-01T05:30:48;6.18;;;4.65;;
44102;SDS011;29769;42.178;24.742;2023-03-01T05:33:36;6.35;;;4.72;;
44102;SDS011;29769;42.178;24.742;2023-03-01T05:36:22;7.75;;;5.43;;
44102;SDS011;29769;42.178;24.742;2023-03-01T05:39:07;5.57;;;4.95;;
44102;SDS011;29769;42.178;24.742;2023-03-01T05:41:52;6.22;;;5.43;;
44102;SDS011;29769;42.178;24.742;2023-03-01T05:44:38;6.97;;;5.40;;
44102;SDS011;29769;42.178;24.742;2023-03-01T05:47:23;11.77;;;5.88;;
44102;SDS011;29769;42.178;24.742;2023-03-01T05:50:09;7.10;;;5.45;;
44102;SDS011;29769;42.178;24.742;2023-03-01T05:52:57;6.53;;;5.25;;
44102;SDS011;29769;42.178;24.742;2023-03-01T05:55:52;6.28;;;4.68;;
44102;SDS011;29769;42.178;24.742;2023-03-01T05:58:37;6.72;;;4.57;;
44102;SDS011;29769;42.178;24.742;2023-03-01T06:01:22;4.78;;;4.18;;
44102;SDS011;29769;42.178;24.742;2023-03-01T06:04:07;5.65;;;4.30;;
44102;SDS011;29769;42.178;24.742;2023-03-01T06:06:52;9.57;;;5.03;;
44102;SDS011;29769;42.178;24.742;2023-03-01T06:09:37;9.50;;;5.55;;
44102;SDS011;29769;42.178;24.742;2023-03-01T06:15:07;10.43;;;4.88;;
44102;SDS011;29769;42.178;24.742;2023-03-01T06:17:54;4.35;;;3.95;;
44102;SDS011;29769;42.178;24.742;2023-03-01T06:20:41;7.50;;;4.88;;
44102;SDS011;29769;42.178;24.742;2023-03-01T06:23:26;7.05;;;4.90;;
44102;SDS011;29769;42.178;24.742;2023-03-01T06:26:11;4.85;;;4.30;;
44102;SDS011;29769;42.178;24.742;2023-03-01T06:28:56;7.82;;;4.47;;
44102;SDS011;29769;42.178;24.742;2023-03-01T06:31:41;5.82;;;4.53;;
44102;SDS011;29769;42.178;24.742;2023-03-01T06:34:25;6.32;;;5.00;;
44102;SDS011;29769;42.178;24.742;2023-03-01T06:37:10;8.43;;;4.70;;
44102;SDS011;29769;42.178;24.742;2023-03-01T06:39:55;4.95;;;4.38;;
44102;SDS011;29769;42.178;24.742;2023-03-01T06:42:41;8.32;;;4.93;;
44102;SDS011;29769;42.178;24.742;2023-03-01T06:45:28;6.93;;;3.95;;
44102;SDS011;29769;42.178;24.742;2023-03-01T06:48:13;5.57;;;3.33;;
44102;SDS011;29769;42.178;24.742;2023-03-01T06:50:58;4.47;;;3.63;;
44102;SDS011;29769;42.178;24.742;2023-03-01T06:53:45;5.45;;;4.43;;
44102;SDS011;29769;42.178;24.742;2023-03-01T06:56:31;6.18;;;5.22;;
44102;SDS011;29769;42.178;24.742;2023-03-01T06:59:17;11.85;;;8.75;;
44102;SDS011;29769;42.178;24.742;2023-03-01T07:02:02;9.38;;;7.35;;
44102;SDS011;29769;42.178;24.742;2023-03-01T07:04:48;8.55;;;5.95;;
44102;SDS011;29769;42.178;24.742;2023-03-01T07:07:36;5.40;;;3.40;;
44102;SDS011;29769;42.178;24.742;2023-03-01T07:10:21;5.80;;;3.55;;
44102;SDS011;29769;42.178;24.742;2023-03-01T07:13:06;5.10;;;2.50;;
44102;SDS011;29769;42.178;24.742;2023-03-01T07:18:36;2.30;;;2.10;;
44102;SDS011;29769;42.178;24.742;2023-03-01T07:21:21;2.85;;;2.58;;
44102;SDS011;29769;42.178;24.742;2023-03-01T07:24:06;2.72;;;2.53;;
44102;SDS011;29769;42.178;24.742;2023-03-01T07:26:52;3.85;;;3.00;;
44102;SDS011;29769;42.178;24.742;2023-03-01T07:29:37;7.40;;;2.80;;
44102;SDS011;29769;42.178;24.742;2023-03-01T07:32:22;5.10;;;3.47;;
44102;SDS011;29769;42.178;24.742;2023-03-01T07:35:07;2.75;;;2.33;;
44102;SDS011;29769;42.178;24.742;2023-03-01T07:37:52;2.65;;;2.10;;
44102;SDS011;29769;42.178;24.742;2023-03-01T07:40:37;3.45;;;2.10;;
44102;SDS011;29769;42.178;24.742;2023-03-01T07:43:22;2.88;;;2.35;;
44102;SDS011;29769;42.178;24.742;2023-03-01T07:46:07;6.25;;;4.00;;
44102;SDS011;29769;42.178;24.742;2023-03-01T07:48:53;4.43;;;3.00;;
44102;SDS011;29769;42.178;24.742;2023-03-01T07:51:38;3.83;;;2.45;;
44102;SDS011;29769;42.178;24.742;2023-03-01T07:57:07;2.78;;;1.50;;
44102;SDS011;29769;42.178;24.742;2023-03-01T07:59:52;1.45;;;1.35;;
44102;SDS011;29769;42.178;24.742;2023-03-01T08:02:37;4.70;;;1.50;;
44102;SDS011;29769;42.178;24.742;2023-03-01T08:05:22;1.50;;;1.40;;
44102;SDS011;29769;42.178;24.742;2023-03-01T08:08:07;1.35;;;1.02;;
44102;SDS011;29769;42.178;24.742;2023-03-01T08:10:52;1.50;;;1.27;;
44102;SDS011;29769;42.178;24.742;2023-03-01T08:13:36;3.92;;;1.40;;
44102;SDS011;29769;42.178;24.742;2023-03-01T08:16:21;3.35;;;1.80;;
44102;SDS011;29769;42.178;24.742;2023-03-01T08:19:06;2.83;;;2.28;;
44102;SDS011;29769;42.178;24.742;2023-03-01T08:21:52;1.65;;;1.40;;
44102;SDS011;29769;42.178;24.742;2023-03-01T08:24:37;3.83;;;2.65;;
44102;SDS011;29769;42.178;24.742;2023-03-01T08:27:22;3.40;;;1.90;;
44102;SDS011;29769;42.178;24.742;2023-03-01T08:30:07;31.33;;;17.58;;
44102;SDS011;29769;42.178;24.742;2023-03-01T08:32:53;1.80;;;1.70;;
44102;SDS011;29769;42.178;24.742;2023-03-01T08:35:38;3.33;;;1.60;;
44102;SDS011;29769;42.178;24.742;2023-03-01T08:38:23;7.40;;;2.50;;
44102;SDS011;29769;42.178;24.742;2023-03-01T08:41:08;2.92;;;2.00;;
44102;SDS011;29769;42.178;24.742;2023-03-01T08:43:53;3.22;;;1.92;;
44102;SDS011;29769;42.178;24.742;2023-03-01T08:46:43;3.42;;;2.67;;
44102;SDS011;29769;42.178;24.742;2023-03-01T08:49:28;2.88;;;1.73;;
44102;SDS011;29769;42.178;24.742;2023-03-01T08:54:58;2.08;;;1.92;;
44102;SDS011;29769;42.178;24.742;2023-03-01T08:57:45;3.58;;;2.72;;
44102;SDS011;29769;42.178;24.742;2023-03-01T09:00:30;2.78;;;1.50;;
44102;SDS011;29769;42.178;24.742;2023-03-01T09:03:15;2.63;;;1.73;;
44102;SDS011;29769;42.178;24.742;2023-03-01T09:06:00;2.50;;;2.30;;
44102;SDS011;29769;42.178;24.742;2023-03-01T09:08:47;1.90;;;1.80;;
44102;SDS011;29769;42.178;24.742;2023-03-01T09:11:34;3.67;;;1.90;;
44102;SDS011;29769;42.178;24.742;2023-03-01T09:14:18;10.15;;;3.90;;
44102;SDS011;29769;42.178;24.742;2023-03-01T09:19:49;3.45;;;2.58;;
44102;SDS011;29769;42.178;24.742;2023-03-01T09:22:34;16.02;;;5.25;;
44102;SDS011;29769;42.178;24.742;2023-03-01T09:25:19;8.15;;;3.53;;
44102;SDS011;29769;42.178;24.742;2023-03-01T09:28:04;6.80;;;3.55;;
44102;SDS011;29769;42.178;24.742;2023-03-01T09:30:49;5.03;;;2.35;;
44102;SDS011;29769;42.178;24.742;2023-03-01T09:33:33;6.32;;;2.83;;
44102;SDS011;29769;42.178;24.742;2023-03-01T09:36:19;7.95;;;3.15;;
44102;SDS011;29769;42.178;24.742;2023-03-01T09:39:06;4.32;;;2.58;;
44102;SDS011;29769;42.178;24.742;2023-03-01T09:41:57;2.88;;;2.22;;
44102;SDS011;29769;42.178;24.742;2023-03-01T09:47:34;8.38;;;3.22;;
44102;SDS011;29769;42.178;24.742;2023-03-01T09:50:21;2.88;;;2.10;;
44102;SDS011;29769;42.178;24.742;2023-03-01T09:53:08;6.97;;;3.00;;
44102;SDS011;29769;42.178;24.742;2023-03-01T09:55:59;1.40;;;1.30;;
44102;SDS011;29769;42.178;24.742;2023-03-01T10:08:31;2.53;;;1.60;;
44102;SDS011;29769;42.178;24.742;2023-03-01T10:11:21;3.63;;;2.45;;
44102;SDS011;29769;42.178;24.742;2023-03-01T10:23:07;5.10;;;2.67;;
44102;SDS011;29769;42.178;24.742;2023-03-01T10:29:30;3.97;;;2.35;;
44102;SDS011;29769;42.178;24.742;2023-03-01T10:32:22;2.13;;;1.92;;
44102;SDS011;29769;42.178;24.742;2023-03-01T10:38:07;3.55;;;2.72;;
44102;SDS011;29769;42.178;24.742;2023-03-01T10:40:54;2.63;;;2.10;;
44102;SDS011;29769;42.178;24.742;2023-03-01T10:43:45;2.80;;;1.80;;
44102;SDS011;29769;42.178;24.742;2023-03-01T10:46:36;2.22;;;1.50;;
44102;SDS011;29769;42.178;24.742;2023-03-01T10:49:22;3.22;;;2.92;;
44102;SDS011;29769;42.178;24.742;2023-03-01T10:52:20;4.80;;;3.47;;
44102;SDS011;29769;42.178;24.742;2023-03-01T11:01:02;4.32;;;2.78;;
44102;SDS011;29769;42.178;24.742;2023-03-01T11:06:57;6.28;;;3.50;;
44102;SDS011;29769;42.178;24.742;2023-03-01T11:09:44;5.57;;;2.92;;
44102;SDS011;29769;42.178;24.742;2023-03-01T11:16:00;7.07;;;4.32;;
44102;SDS011;29769;42.178;24.742;2023-03-01T11:18:46;3.38;;;2.92;;
44102;SDS011;29769;42.178;24.742;2023-03-01T11:24:52;2.47;;;2.17;;
44102;SDS011;29769;42.178;24.742;2023-03-01T11:27:43;4.28;;;3.13;;
44102;SDS011;29769;42.178;24.742;2023-03-01T11:31:31;1.75;;;1.63;;
44102;SDS011;29769;42.178;24.742;2023-03-01T11:33:59;3.35;;;2.40;;
44102;SDS011;29769;42.178;24.742;2023-03-01T11:36:54;4.57;;;2.70;;
44102;SDS011;29769;42.178;24.742;2023-03-01T11:39:51;3.22;;;2.50;;
44102;SDS011;29769;42.178;24.742;2023-03-01T11:43:01;2.75;;;1.70;;
44102;SDS011;29769;42.178;24.742;2023-03-01T11:45:57;2.75;;;1.75;;
44102;SDS011;29769;42.178;24.742;2023-03-01T11:49:09;2.65;;;1.88;;
44102;SDS011;29769;42.178;24.742;2023-03-01T12:06:57;2.38;;;1.95;;
44102;SDS011;29769;42.178;24.742;2023-03-01T12:10:01;1.48;;;1.20;;
44102;SDS011;29769;42.178;24.742;2023-03-01T12:18:50;2.15;;;1.65;;
44102;SDS011;29769;42.178;24.742;2023-03-01T12:28:17;8.18;;;6.93;;
44102;SDS011;29769;42.178;24.742;2023-03-01T12:40:36;4.13;;;2.63;;
44102;SDS011;29769;42.178;24.742;2023-03-01T12:46:46;6.38;;;5.13;;
44102;SDS011;29769;42.178;24.742;2023-03-01T12:49:51;6.38;;;4.90;;
44102;SDS011;29769;42.178;24.742;2023-03-01T12:55:34;5.47;;;3.40;;
44102;SDS011;29769;42.178;24.742;2023-03-01T12:58:24;5.25;;;4.43;;
44102;SDS011;29769;42.178;24.742;2023-03-01T13:07:41;2.30;;;2.10;;
44102;SDS011;29769;42.178;24.742;2023-03-01T13:13:26;3.97;;;1.70;;
44102;SDS011;29769;42.178;24.742;2023-03-01T13:19:29;2.17;;;1.90;;
44102;SDS011;29769;42.178;24.742;2023-03-01T13:22:25;2.15;;;1.95;;
44102;SDS011;29769;42.178;24.742;2023-03-01T13:25:15;2.47;;;2.20;;
44102;SDS011;29769;42.178;24.742;2023-03-01T13:28:32;2.08;;;1.70;;
44102;SDS011;29769;42.178;24.742;2023-03-01T13:34:06;3.20;;;1.42;;
44102;SDS011;29769;42.178;24.742;2023-03-01T13:37:29;1.83;;;1.70;;
44102;SDS011;29769;42.178;24.742;2023-03-01T13:49:09;2.00;;;1.90;;
44102;SDS011;29769;42.178;24.742;2023-03-01T13:51:59;3.40;;;2.90;;
44102;SDS011;29769;42.178;24.742;2023-03-01T13:54:43;4.35;;;3.75;;
44102;SDS011;29769;42.178;24.742;2023-03-01T13:57:34;2.45;;;1.80;;
44102;SDS011;29769;42.178;24.742;2023-03-01T14:03:21;2.53;;;2.33;;
44102;SDS011;29769;42.178;24.742;2023-03-01T14:06:13;2.92;;;2.67;;
44102;SDS011;29769;42.178;24.742;2023-03-01T14:09:04;4.82;;;2.95;;
44102;SDS011;29769;42.178;24.742;2023-03-01T14:18:24;3.63;;;3.10;;
44102;SDS011;29769;42.178;24.742;2023-03-01T14:21:16;3.40;;;2.90;;
44102;SDS011;29769;42.178;24.742;2023-03-01T14:24:02;3.25;;;2.65;;
44102;SDS011;29769;42.178;24.742;2023-03-01T14:26:49;5.40;;;2.25;;
44102;SDS011;29769;42.178;24.742;2023-03-01T14:29:35;4.15;;;3.35;;
44102;SDS011;29769;42.178;24.742;2023-03-01T14:32:26;4.35;;;3.03;;
44102;SDS011;29769;42.178;24.742;2023-03-01T14:35:32;3.88;;;2.75;;
44102;SDS011;29769;42.178;24.742;2023-03-01T14:38:34;2.55;;;2.35;;
44102;SDS011;29769;42.178;24.742;2023-03-01T14:41:25;2.95;;;2.47;;
44102;SDS011;29769;42.178;24.742;2023-03-01T14:44:14;3.03;;;2.80;;
44102;SDS011;29769;42.178;24.742;2023-03-01T14:47:04;3.72;;;2.72;;
44102;SDS011;29769;42.178;24.742;2023-03-01T14:49:50;3.10;;;2.72;;
44102;SDS011;29769;42.178;24.742;2023-03-01T14:52:42;6.43;;;3.60;;
44102;SDS011;29769;42.178;24.742;2023-03-01T14:58:19;3.55;;;3.00;;
44102;SDS011;29769;42.178;24.742;2023-03-01T15:01:07;3.15;;;2.85;;
44102;SDS011;29769;42.178;24.742;2023-03-01T15:03:58;4.15;;;3.13;;
44102;SDS011;29769;42.178;24.742;2023-03-01T15:06:45;3.30;;;2.50;;
44102;SDS011;29769;42.178;24.742;2023-03-01T15:09:32;2.83;;;2.58;;
44102;SDS011;29769;42.178;24.742;2023-03-01T15:12:25;3.28;;;2.20;;
44102;SDS011;29769;42.178;24.742;2023-03-01T15:15:18;3.55;;;2.30;;
44102;SDS011;29769;42.178;24.742;2023-03-01T15:18:06;2.60;;;2.40;;
44102;SDS011;29769;42.178;24.742;2023-03-01T15:21:05;5.90;;;3.63;;
44102;SDS011;29769;42.178;24.742;2023-03-01T15:23:53;4.00;;;2.78;;
44102;SDS011;29769;42.178;24.742;2023-03-01T15:26:42;3.58;;;3.00;;
44102;SDS011;29769;42.178;24.742;2023-03-01T15:29:31;6.32;;;2.53;;
44102;SDS011;29769;42.178;24.742;2023-03-01T15:44:24;4.72;;;3.75;;
44102;SDS011;29769;42.178;24.742;2023-03-01T15:47:22;4.15;;;2.08;;
44102;SDS011;29769;42.178;24.742;2023-03-01T15:50:15;3.78;;;2.50;;
44102;SDS011;29769;42.178;24.742;2023-03-01T15:53:10;6.68;;;3.70;;
44102;SDS011;29769;42.178;24.742;2023-03-01T15:55:56;4.20;;;3.10;;
44102;SDS011;29769;42.178;24.742;2023-03-01T15:58:41;5.28;;;3.40;;
44102;SDS011;29769;42.178;24.742;2023-03-01T16:01:26;4.05;;;3.55;;
44102;SDS011;29769;42.178;24.742;2023-03-01T16:07:00;3.50;;;2.78;;
44102;SDS011;29769;42.178;24.742;2023-03-01T16:09:45;3.53;;;2.97;;
44102;SDS011;29769;42.178;24.742;2023-03-01T16:12:30;3.83;;;2.75;;
44102;SDS011;29769;42.178;24.742;2023-03-01T16:15:16;3.67;;;2.85;;
44102;SDS011;29769;42.178;24.742;2023-03-01T16:18:04;4.00;;;3.50;;
44102;SDS011;29769;42.178;24.742;2023-03-01T16:20:50;3.20;;;2.35;;
44102;SDS011;29769;42.178;24.742;2023-03-01T16:23:34;5.38;;;2.92;;
44102;SDS011;29769;42.178;24.742;2023-03-01T16:26:20;6.47;;;4.35;;
44102;SDS011;29769;42.178;24.742;2023-03-01T16:29:05;5.45;;;4.13;;
44102;SDS011;29769;42.178;24.742;2023-03-01T16:31:50;7.35;;;4.85;;
44102;SDS011;29769;42.178;24.742;2023-03-01T16:34:35;6.68;;;4.28;;
44102;SDS011;29769;42.178;24.742;2023-03-01T16:37:20;6.38;;;4.72;;
44102;SDS011;29769;42.178;24.742;2023-03-01T16:40:06;5.18;;;4.07;;
44102;SDS011;29769;42.178;24.742;2023-03-01T16:45:46;7.38;;;4.88;;
44102;SDS011;29769;42.178;24.742;2023-03-01T16:48:31;7.10;;;5.03;;
44102;SDS011;29769;42.178;24.742;2023-03-01T16:51:16;7.53;;;5.00;;
44102;SDS011;29769;42.178;24.742;2023-03-01T16:54:01;10.93;;;5.63;;
44102;SDS011;29769;42.178;24.742;2023-03-01T16:56:48;6.68;;;5.05;;
44102;SDS011;29769;42.178;24.742;2023-03-01T16:59:33;12.13;;;7.45;;
44102;SDS011;29769;42.178;24.742;2023-03-01T17:02:18;9.98;;;6.05;;
44102;SDS011;29769;42.178;24.742;2023-03-01T17:05:04;11.77;;;7.57;;
44102;SDS011;29769;42.178;24.742;2023-03-01T17:07:49;11.60;;;7.97;;
44102;SDS011;29769;42.178;24.742;2023-03-01T17:10:34;16.25;;;8.45;;
44102;SDS011;29769;42.178;24.742;2023-03-01T17:13:19;16.08;;;9.23;;
44102;SDS011;29769;42.178;24.742;2023-03-01T17:16:04;16.80;;;10.02;;
44102;SDS011;29769;42.178;24.742;2023-03-01T17:18:51;11.88;;;6.60;;
44102;SDS011;29769;42.178;24.742;2023-03-01T17:21:36;10.73;;;7.30;;
44102;SDS011;29769;42.178;24.742;2023-03-01T17:24:21;11.77;;;7.38;;
44102;SDS011;29769;42.178;24.742;2023-03-01T17:27:06;9.25;;;6.35;;
44102;SDS011;29769;42.178;24.742;2023-03-01T17:29:52;9.38;;;5.50;;
44102;SDS011;29769;42.178;24.742;2023-03-01T17:32:37;7.50;;;5.50;;
44102;SDS011;29769;42.178;24.742;2023-03-01T17:35:21;14.07;;;8.70;;
44102;SDS011;29769;42.178;24.742;2023-03-01T17:38:06;11.68;;;6.82;;
44102;SDS011;29769;42.178;24.742;2023-03-01T17:40:51;12.30;;;7.88;;
44102;SDS011;29769;42.178;24.742;2023-03-01T17:43:35;10.38;;;7.30;;
44102;SDS011;29769;42.178;24.742;2023-03-01T17:46:20;11.48;;;8.18;;
44102;SDS011;29769;42.178;24.742;2023-03-01T17:49:05;13.93;;;8.32;;
44102;SDS011;29769;42.178;24.742;2023-03-01T17:54:35;14.60;;;10.65;;
44102;SDS011;29769;42.178;24.742;2023-03-01T17:57:20;18.13;;;12.23;;
44102;SDS011;29769;42.178;24.742;2023-03-01T18:00:05;17.48;;;12.65;;
44102;SDS011;29769;42.178;24.742;2023-03-01T18:02:56;19.67;;;10.55;;
44102;SDS011;29769;42.178;24.742;2023-03-01T18:05:41;16.13;;;11.35;;
44102;SDS011;29769;42.178;24.742;2023-03-01T18:08:26;13.27;;;9.68;;
44102;SDS011;29769;42.178;24.742;2023-03-01T18:11:11;15.98;;;11.43;;
44102;SDS011;29769;42.178;24.742;2023-03-01T18:13:56;14.63;;;10.65;;
44102;SDS011;29769;42.178;24.742;2023-03-01T18:16:41;12.23;;;8.55;;
44102;SDS011;29769;42.178;24.742;2023-03-01T18:19:26;13.13;;;8.48;;
44102;SDS011;29769;42.178;24.742;2023-03-01T18:22:12;13.93;;;8.98;;
44102;SDS011;29769;42.178;24.742;2023-03-01T18:24:56;12.05;;;7.93;;
44102;SDS011;29769;42.178;24.742;2023-03-01T18:27:41;13.30;;;8.07;;
44102;SDS011;29769;42.178;24.742;2023-03-01T18:30:26;16.48;;;7.22;;
44102;SDS011;29769;42.178;24.742;2023-03-01T18:33:11;8.70;;;6.53;;
44102;SDS011;29769;42.178;24.742;2023-03-01T18:35:56;12.65;;;8.52;;
44102;SDS011;29769;42.178;24.742;2023-03-01T18:38:41;14.35;;;9.13;;
44102;SDS011;29769;42.178;24.742;2023-03-01T18:41:26;13.35;;;10.02;;
44102;SDS011;29769;42.178;24.742;2023-03-01T18:44:12;14.40;;;10.05;;
44102;SDS011;29769;42.178;24.742;2023-03-01T18:46:57;14.60;;;9.80;;
44102;SDS011;29769;42.178;24.742;2023-03-01T18:49:41;18.95;;;11.27;;
44102;SDS011;29769;42.178;24.742;2023-03-01T18:52:27;14.02;;;10.13;;
44102;SDS011;29769;42.178;24.742;2023-03-01T18:55:12;11.35;;;6.93;;
44102;SDS011;29769;42.178;24.742;2023-03-01T18:57:57;13.23;;;8.45;;
44102;SDS011;29769;42.178;24.742;2023-03-01T19:00:42;12.73;;;8.60;;
44102;SDS011;29769;42.178;24.742;2023-03-01T19:06:12;16.60;;;9.32;;
44102;SDS011;29769;42.178;24.742;2023-03-01T19:08:58;15.88;;;8.20;;
44102;SDS011;29769;42.178;24.742;2023-03-01T19:11:43;16.65;;;9.43;;
44102;SDS011;29769;42.178;24.742;2023-03-01T19:14:28;19.55;;;11.65;;
44102;SDS011;29769;42.178;24.742;2023-03-01T19:17:13;19.05;;;11.68;;
44102;SDS011;29769;42.178;24.742;2023-03-01T19:19:59;21.77;;;13.10;;
44102;SDS011;29769;42.178;24.742;2023-03-01T19:25:28;20.40;;;13.23;;
44102;SDS011;29769;42.178;24.742;2023-03-01T19:28:13;24.23;;;14.82;;
44102;SDS011;29769;42.178;24.742;2023-03-01T19:33:44;24.43;;;15.53;;
44102;SDS011;29769;42.178;24.742;2023-03-01T19:36:29;18.98;;;11.57;;
44102;SDS011;29769;42.178;24.742;2023-03-01T19:39:18;27.10;;;15.48;;
44102;SDS011;29769;42.178;24.742;2023-03-01T19:42:03;23.42;;;14.73;;
44102;SDS011;29769;42.178;24.742;2023-03-01T19:44:48;24.83;;;13.88;;